createdAt,value
2018-04-28T00:00:10.266Z,25.50
2018-04-28T00:01:15.542Z,25.50
2018-04-28T00:02:20.055Z,18.50
2018-04-28T00:03:24.229Z,22.50
2018-04-28T00:04:28.388Z,19.00
2018-04-28T00:05:32.652Z,21.50
2018-04-28T00:06:36.791Z,21.00
2018-04-28T00:07:41.045Z,18.50
2018-04-28T00:08:45.618Z,22.50
2018-04-28T00:09:49.855Z,19.00
2018-04-28T00:10:54.185Z,22.50
2018-04-28T00:11:58.358Z,26.00
2018-04-28T00:13:02.596Z,24.00
2018-04-28T00:14:06.804Z,28.50
2018-04-28T00:15:12.889Z,23.00
2018-04-28T00:16:17.340Z,26.50
2018-04-28T00:17:21.628Z,21.50
2018-04-28T00:18:26.052Z,22.50
2018-04-28T00:19:30.408Z,22.00
2018-04-28T00:20:34.631Z,20.00
2018-04-28T00:21:39.227Z,21.50
2018-04-28T00:22:43.408Z,16.00
2018-04-28T00:23:47.823Z,21.50
2018-04-28T00:24:52.056Z,18.00
2018-04-28T00:25:56.697Z,20.50
2018-04-28T00:27:05.040Z,17.00
2018-04-28T00:28:09.630Z,20.00
2018-04-28T00:29:14.347Z,19.00
2018-04-28T00:30:19.077Z,30.00
2018-04-28T00:31:23.585Z,25.00
2018-04-28T00:32:27.791Z,20.00
2018-04-28T00:33:31.957Z,20.00
2018-04-28T00:34:36.352Z,16.00
2018-04-28T00:35:40.564Z,17.50
2018-04-28T00:36:44.923Z,19.50
2018-04-28T00:37:49.680Z,18.00
2018-04-28T00:38:53.941Z,15.50
2018-04-28T00:39:59.019Z,18.50
2018-04-28T00:41:04.263Z,28.00
2018-04-28T00:42:08.456Z,24.00
2018-04-28T00:43:13.265Z,22.00
2018-04-28T00:44:17.953Z,24.00
2018-04-28T00:45:22.996Z,32.00
2018-04-28T00:46:27.238Z,21.50
2018-04-28T00:47:31.426Z,24.50
2018-04-28T00:48:35.823Z,26.50
2018-04-28T00:49:40.071Z,18.50
2018-04-28T00:50:44.833Z,24.50
2018-04-28T00:51:49.191Z,27.00
2018-04-28T00:52:53.509Z,20.50
2018-04-28T00:53:58.384Z,17.50
2018-04-28T00:55:02.589Z,18.00
2018-04-28T00:56:07.291Z,24.50
2018-04-28T00:57:14.621Z,24.50
2018-04-28T00:58:18.881Z,22.00
2018-04-28T00:59:23.149Z,20.50
2018-04-28T01:00:28.082Z,34.00
2018-04-28T01:01:33.913Z,19.00
2018-04-28T01:02:38.213Z,24.50
2018-04-28T01:03:42.513Z,21.00
2018-04-28T01:04:46.864Z,21.00
2018-04-28T01:05:51.228Z,15.00
2018-04-28T01:06:55.363Z,24.00
2018-04-28T01:07:59.921Z,23.50
2018-04-28T01:09:06.265Z,18.50
2018-04-28T01:10:10.871Z,22.00
2018-04-28T01:11:15.229Z,18.50
2018-04-28T01:12:19.386Z,18.00
2018-04-28T01:13:23.588Z,16.50
2018-04-28T01:14:30.099Z,16.00
2018-04-28T01:15:35.291Z,23.50
2018-04-28T01:16:39.949Z,21.00
2018-04-28T01:17:44.209Z,17.00
2018-04-28T01:18:48.991Z,18.50
2018-04-28T01:19:53.581Z,16.00
2018-04-28T01:21:01.745Z,16.00
2018-04-28T01:22:06.209Z,14.00
2018-04-28T01:23:10.481Z,18.50
2018-04-28T01:24:15.598Z,19.00
2018-04-28T01:25:19.864Z,14.50
2018-04-28T01:26:24.105Z,19.50
2018-04-28T01:27:28.459Z,14.00
2018-04-28T01:28:36.919Z,13.50
2018-04-28T01:29:49.826Z,13.00
2018-04-28T01:30:55.387Z,21.50
2018-04-28T01:32:00.177Z,22.00
2018-04-28T01:33:05.606Z,16.00
2018-04-28T01:34:10.224Z,16.50
2018-04-28T01:35:14.887Z,16.50
2018-04-28T01:36:19.125Z,15.50
2018-04-28T01:37:23.366Z,16.00
2018-04-28T01:38:27.791Z,18.00
2018-04-28T01:39:32.241Z,15.50
2018-04-28T01:40:36.447Z,21.00
2018-04-28T01:41:41.046Z,23.00
2018-04-28T01:42:45.456Z,19.50
2018-04-28T01:43:49.987Z,17.00
2018-04-28T01:44:54.341Z,16.50
2018-04-28T01:45:59.187Z,18.50
2018-04-28T01:47:03.764Z,22.50
2018-04-28T01:48:08.271Z,18.00
2018-04-28T01:49:12.626Z,14.50
2018-04-28T01:50:17.153Z,20.00
2018-04-28T01:51:21.314Z,17.00
2018-04-28T01:52:25.593Z,17.50
2018-04-28T01:53:30.103Z,12.50
2018-04-28T01:54:34.725Z,22.00
2018-04-28T01:55:39.037Z,18.50
2018-04-28T01:56:43.199Z,15.00
2018-04-28T01:57:47.873Z,17.00
2018-04-28T01:58:52.321Z,14.00
2018-04-28T01:59:57.051Z,16.00
2018-04-28T02:01:01.630Z,17.00
2018-04-28T02:02:07.044Z,17.00
2018-04-28T02:03:11.382Z,11.50
2018-04-28T02:04:15.997Z,14.00
2018-04-28T02:05:22.042Z,16.00
2018-04-28T02:06:27.048Z,21.50
2018-04-28T02:07:31.538Z,22.50
2018-04-28T02:08:36.060Z,17.50
2018-04-28T02:09:40.642Z,21.50
2018-04-28T02:10:45.357Z,14.00
2018-04-28T02:11:49.630Z,13.50
2018-04-28T02:12:58.391Z,21.00
2018-04-28T02:14:02.848Z,18.50
2018-04-28T02:15:07.652Z,16.50
2018-04-28T02:16:12.318Z,16.50
2018-04-28T02:17:17.369Z,18.50
2018-04-28T02:18:22.952Z,15.50
2018-04-28T02:19:28.161Z,18.00
2018-04-28T02:20:32.564Z,18.00
2018-04-28T02:21:36.883Z,20.00
2018-04-28T02:22:41.107Z,13.00
2018-04-28T02:23:45.696Z,19.00
2018-04-28T02:24:50.849Z,19.50
2018-04-28T02:25:55.141Z,20.00
2018-04-28T02:26:59.453Z,13.50
2018-04-28T02:28:05.314Z,18.00
2018-04-28T02:29:09.640Z,18.00
2018-04-28T02:30:16.180Z,21.00
2018-04-28T02:31:22.518Z,16.50
2018-04-28T02:32:26.740Z,21.50
2018-04-28T02:33:30.940Z,18.00
2018-04-28T02:34:35.231Z,14.50
2018-04-28T02:35:39.457Z,17.50
2018-04-28T02:36:44.321Z,15.50
2018-04-28T02:37:49.048Z,16.00
2018-04-28T02:38:53.222Z,12.00
2018-04-28T02:39:58.312Z,14.50
2018-04-28T02:41:03.556Z,16.00
2018-04-28T02:42:07.917Z,13.50
2018-04-28T02:43:12.393Z,18.00
2018-04-28T02:44:20.998Z,16.00
2018-04-28T02:45:25.742Z,32.00
2018-04-28T02:46:30.435Z,21.50
2018-04-28T02:47:35.518Z,15.50
2018-04-28T02:48:45.568Z,16.50
2018-04-28T02:49:50.187Z,18.50
2018-04-28T02:50:54.774Z,16.50
2018-04-28T02:51:59.026Z,15.50
2018-04-28T02:53:08.133Z,21.50
2018-04-28T02:54:14.398Z,18.00
2018-04-28T02:55:18.866Z,21.50
2018-04-28T02:56:23.133Z,14.00
2018-04-28T02:57:27.792Z,19.00
2018-04-28T02:58:32.068Z,16.50
2018-04-28T02:59:36.690Z,14.50
2018-04-28T03:00:41.824Z,17.50
2018-04-28T03:01:46.245Z,16.00
2018-04-28T03:02:50.602Z,14.00
2018-04-28T03:03:55.046Z,13.50
2018-04-28T03:04:59.205Z,20.50
2018-04-28T03:06:03.593Z,16.00
2018-04-28T03:07:09.382Z,16.50
2018-04-28T03:08:14.752Z,18.00
2018-04-28T03:09:19.009Z,14.00
2018-04-28T03:10:23.884Z,16.00
2018-04-28T03:11:32.087Z,14.50
2018-04-28T03:12:36.518Z,16.00
2018-04-28T03:13:40.760Z,20.50
2018-04-28T03:14:45.045Z,22.50
2018-04-28T03:17:08.554Z,23.50
2018-04-28T03:18:12.823Z,19.00
2018-04-28T03:19:17.706Z,20.50
2018-04-28T03:20:21.903Z,18.50
2018-04-28T03:21:26.098Z,17.00
2018-04-28T03:22:30.508Z,16.00
2018-04-28T03:23:34.784Z,18.50
2018-04-28T03:24:39.001Z,17.50
2018-04-28T03:25:43.800Z,24.00
2018-04-28T03:26:48.257Z,20.00
2018-04-28T03:27:52.457Z,18.00
2018-04-28T03:28:57.101Z,22.00
2018-04-28T03:30:01.259Z,17.00
2018-04-28T03:31:06.139Z,19.00
2018-04-28T03:32:10.357Z,16.00
2018-04-28T03:33:15.093Z,15.00
2018-04-28T03:34:19.478Z,19.50
2018-04-28T03:35:23.817Z,14.00
2018-04-28T03:36:28.086Z,20.00
2018-04-28T03:37:32.600Z,22.00
2018-04-28T03:38:39.062Z,17.50
2018-04-28T03:39:43.958Z,26.00
2018-04-28T03:40:48.657Z,17.00
2018-04-28T03:41:52.929Z,21.00
2018-04-28T03:42:57.225Z,10.00
2018-04-28T03:44:02.014Z,17.50
2018-04-28T03:45:07.307Z,16.00
2018-04-28T03:46:11.892Z,15.00
2018-04-28T03:47:16.771Z,9.50
2018-04-28T03:48:21.487Z,24.50
2018-04-28T03:49:26.738Z,20.50
2018-04-28T03:50:31.945Z,26.00
2018-04-28T03:51:36.724Z,20.00
2018-04-28T03:52:44.521Z,20.50
2018-04-28T03:53:47.687Z,18.00
2018-04-28T03:54:52.061Z,11.50
2018-04-28T03:55:56.572Z,22.50
2018-04-28T03:57:01.171Z,12.00
2018-04-28T03:58:16.151Z,25.50
2018-04-28T04:01:38.161Z,28.00
2018-04-28T04:03:19.393Z,16.00
2018-04-28T04:04:24.123Z,21.50
2018-04-28T04:05:28.577Z,23.50
2018-04-28T04:06:33.157Z,20.00
2018-04-28T04:07:37.433Z,17.50
2018-04-28T04:08:41.663Z,26.50
2018-04-28T04:09:46.058Z,16.50
2018-04-28T04:10:50.675Z,17.00
2018-04-28T04:11:54.945Z,17.00
2018-04-28T04:12:59.468Z,11.50
2018-04-28T04:14:04.728Z,17.50
2018-04-28T04:15:09.476Z,10.00
2018-04-28T04:16:15.001Z,26.00
2018-04-28T04:17:19.199Z,16.00
2018-04-28T04:18:27.909Z,14.00
2018-04-28T04:19:36.574Z,22.00
2018-04-28T04:20:41.105Z,19.50
2018-04-28T04:21:45.569Z,15.00
2018-04-28T04:22:49.971Z,24.00
2018-04-28T04:23:59.869Z,24.50
2018-04-28T04:25:04.095Z,20.50
2018-04-28T04:26:08.361Z,25.00
2018-04-28T04:27:12.949Z,16.00
2018-04-28T04:28:17.263Z,20.50
2018-04-28T04:29:21.497Z,12.50
2018-04-28T04:30:26.473Z,27.50
2018-04-28T04:31:30.985Z,9.00
2018-04-28T04:32:35.271Z,16.00
2018-04-28T04:33:39.597Z,13.50
2018-04-28T04:34:44.136Z,22.50
2018-04-28T04:35:48.839Z,18.00
2018-04-28T04:36:53.112Z,24.00
2018-04-28T04:37:57.332Z,17.50
2018-04-28T04:39:01.849Z,13.50
2018-04-28T04:40:06.111Z,18.50
2018-04-28T04:41:10.499Z,15.00
2018-04-28T04:42:15.645Z,21.50
2018-04-28T04:43:19.816Z,18.50
2018-04-28T04:44:24.051Z,20.00
2018-04-28T04:45:28.595Z,27.00
2018-04-28T04:46:32.836Z,21.00
2018-04-28T04:47:37.137Z,20.00
2018-04-28T04:48:41.353Z,22.00
2018-04-28T04:49:45.633Z,22.50
2018-04-28T04:50:54.589Z,26.00
2018-04-28T04:51:59.834Z,11.50
2018-04-28T04:53:11.041Z,19.00
2018-04-28T04:54:16.176Z,20.00
2018-04-28T04:55:21.315Z,18.00
2018-04-28T04:56:29.069Z,14.00
2018-04-28T04:57:33.833Z,20.00
2018-04-28T04:58:38.190Z,23.00
2018-04-28T04:59:42.443Z,12.50
2018-04-28T05:00:48.456Z,26.00
2018-04-28T05:01:58.453Z,15.00
2018-04-28T05:03:03.145Z,16.50
2018-04-28T05:04:08.529Z,25.50
2018-04-28T05:05:13.152Z,21.00
2018-04-28T05:06:17.742Z,20.00
2018-04-28T05:07:21.995Z,15.00
2018-04-28T05:08:26.871Z,15.50
2018-04-28T05:09:31.273Z,15.00
2018-04-28T05:10:40.421Z,21.50
2018-04-28T05:11:44.961Z,22.50
2018-04-28T05:12:52.773Z,18.00
2018-04-28T05:13:57.419Z,10.00
2018-04-28T05:15:03.195Z,20.00
2018-04-28T05:16:08.119Z,25.50
2018-04-28T05:17:12.995Z,18.50
2018-04-28T05:18:25.927Z,9.50
2018-04-28T05:19:30.195Z,19.00
2018-04-28T05:20:34.553Z,22.00
2018-04-28T05:21:39.007Z,37.00
2018-04-28T05:22:43.951Z,15.50
2018-04-28T05:23:48.935Z,22.00
2018-04-28T05:24:53.353Z,13.00
2018-04-28T05:25:58.287Z,11.50
2018-04-28T05:27:02.767Z,22.00
2018-04-28T05:28:07.060Z,20.00
2018-04-28T05:29:13.149Z,16.00
2018-04-28T05:30:21.949Z,32.00
2018-04-28T05:31:26.453Z,21.00
2018-04-28T05:32:30.935Z,22.50
2018-04-28T05:33:36.491Z,21.00
2018-04-28T05:34:41.757Z,12.00
2018-04-28T05:35:48.021Z,14.00
2018-04-28T05:36:52.328Z,21.00
2018-04-28T05:37:57.110Z,21.00
2018-04-28T05:39:01.906Z,18.50
2018-04-28T05:40:07.259Z,16.50
2018-04-28T05:41:17.473Z,26.00
2018-04-28T05:42:29.585Z,21.00
2018-04-28T05:43:33.991Z,18.00
2018-04-28T05:44:38.841Z,21.00
2018-04-28T05:45:43.377Z,27.00
2018-04-28T05:46:48.287Z,20.00
2018-04-28T05:47:56.563Z,28.50
2018-04-28T05:49:01.142Z,28.50
2018-04-28T05:50:06.172Z,19.50
2018-04-28T05:51:10.988Z,25.00
2018-04-28T05:52:16.511Z,22.00
2018-04-28T05:53:22.087Z,12.00
2018-04-28T05:54:28.677Z,25.00
2018-04-28T05:55:33.035Z,16.00
2018-04-28T05:56:40.507Z,24.00
2018-04-28T05:57:46.177Z,32.00
2018-04-28T05:58:50.759Z,26.00
2018-04-28T05:59:55.591Z,26.00
2018-04-28T06:01:00.448Z,13.50
2018-04-28T06:02:05.180Z,12.00
2018-04-28T06:03:14.565Z,17.00
2018-04-28T06:04:27.394Z,24.00
2018-04-28T06:05:31.666Z,29.00
2018-04-28T06:06:36.639Z,20.00
2018-04-28T06:07:41.181Z,11.50
2018-04-28T06:08:46.302Z,24.00
2018-04-28T06:09:50.824Z,21.50
2018-04-28T06:10:55.898Z,34.00
2018-04-28T06:12:00.650Z,29.50
2018-04-28T06:13:07.504Z,25.50
2018-04-28T06:14:12.009Z,25.00
2018-04-28T06:15:17.200Z,19.50
2018-04-28T06:16:21.599Z,20.50
2018-04-28T06:17:26.313Z,22.50
2018-04-28T06:18:35.767Z,26.00
2018-04-28T06:19:41.409Z,32.00
2018-04-28T06:20:45.638Z,30.00
2018-04-28T06:21:49.904Z,25.50
2018-04-28T06:22:54.037Z,31.50
2018-04-28T06:23:58.486Z,15.50
2018-04-28T06:25:02.990Z,33.00
2018-04-28T06:26:07.154Z,31.50
2018-04-28T06:27:11.286Z,21.50
2018-04-28T06:28:16.025Z,24.00
2018-04-28T06:29:20.301Z,28.50
2018-04-28T06:30:24.886Z,22.50
2018-04-28T06:31:29.342Z,30.50
2018-04-28T06:32:33.551Z,26.50
2018-04-28T06:33:38.024Z,34.00
2018-04-28T06:34:43.831Z,32.50
2018-04-28T06:35:50.298Z,30.00
2018-04-28T06:36:56.513Z,24.50
2018-04-28T06:38:01.264Z,21.50
2018-04-28T06:39:07.483Z,16.00
2018-04-28T06:40:11.673Z,24.50
2018-04-28T06:41:15.922Z,29.50
2018-04-28T06:42:20.323Z,31.00
2018-04-28T06:43:27.485Z,29.50
2018-04-28T06:44:32.038Z,25.50
2018-04-28T06:45:36.581Z,43.00
2018-04-28T06:46:40.729Z,37.00
2018-04-28T06:47:45.286Z,35.50
2018-04-28T06:48:49.548Z,28.00
2018-04-28T06:49:53.679Z,34.00
2018-04-28T06:50:58.158Z,33.00
2018-04-28T06:52:02.402Z,28.00
2018-04-28T06:53:10.838Z,42.00
2018-04-28T06:54:15.367Z,34.00
2018-04-28T06:55:19.839Z,27.00
2018-04-28T06:56:24.191Z,27.00
2018-04-28T06:57:28.462Z,36.50
2018-04-28T06:58:32.641Z,30.75
2018-04-28T06:59:37.049Z,33.75
2018-04-28T07:00:41.583Z,19.00
2018-04-28T07:01:46.359Z,36.50
2018-04-28T07:02:50.531Z,28.75
2018-04-28T07:03:54.810Z,14.50
2018-04-28T07:05:00.866Z,39.00
2018-04-28T07:06:05.171Z,23.50
2018-04-28T07:07:09.456Z,28.00
2018-04-28T07:08:13.898Z,30.00
2018-04-28T07:09:18.533Z,22.75
2018-04-28T07:10:23.821Z,44.50
2018-04-28T07:11:28.064Z,33.00
2018-04-28T07:12:32.474Z,33.75
2018-04-28T07:13:36.981Z,30.75
2018-04-28T07:14:45.279Z,33.50
2018-04-28T07:15:49.977Z,31.00
2018-04-28T07:16:54.581Z,29.75
2018-04-28T07:17:59.110Z,37.50
2018-04-28T07:19:03.579Z,49.25
2018-04-28T07:20:08.141Z,39.50
2018-04-28T07:21:12.630Z,36.50
2018-04-28T07:22:18.361Z,37.50
2018-04-28T07:23:22.873Z,42.00
2018-04-28T07:24:27.731Z,38.00
2018-04-28T07:25:32.849Z,35.00
2018-04-28T07:26:37.087Z,49.50
2018-04-28T07:27:41.529Z,36.00
2018-04-28T07:28:46.006Z,36.00
2018-04-28T07:29:50.381Z,38.25
2018-04-28T07:30:54.915Z,37.50
2018-04-28T07:31:59.409Z,39.50
2018-04-28T07:33:03.582Z,30.50
2018-04-28T07:34:08.197Z,31.50
2018-04-28T07:35:12.394Z,30.50
2018-04-28T07:36:16.554Z,39.50
2018-04-28T07:37:22.254Z,47.25
2018-04-28T07:38:26.732Z,33.25
2018-04-28T07:39:30.933Z,31.75
2018-04-28T07:40:35.083Z,27.00
2018-04-28T07:41:39.343Z,23.50
2018-04-28T07:42:43.567Z,42.50
2018-04-28T07:43:47.760Z,34.50
2018-04-28T07:44:52.022Z,34.50
2018-04-28T07:45:56.800Z,45.50
2018-04-28T07:47:01.110Z,29.50
2018-04-28T07:48:05.559Z,50.75
2018-04-28T07:49:10.144Z,39.25
2018-04-28T07:50:15.667Z,50.00
2018-04-28T07:51:20.112Z,45.75
2018-04-28T07:52:24.563Z,36.00
2018-04-28T07:53:29.306Z,38.50
2018-04-28T07:54:33.565Z,28.50
2018-04-28T07:55:37.824Z,29.00
2018-04-28T07:56:42.022Z,42.00
2018-04-28T07:57:46.158Z,34.00
2018-04-28T07:58:50.610Z,21.50
2018-04-28T08:00:58.950Z,36.50
2018-04-28T08:02:03.234Z,27.00
2018-04-28T08:03:07.372Z,29.50
2018-04-28T08:04:11.515Z,24.75
2018-04-28T08:05:16.310Z,47.25
2018-04-28T08:06:20.626Z,37.00
2018-04-28T08:07:24.853Z,35.50
2018-04-28T08:08:29.660Z,37.00
2018-04-28T08:09:33.825Z,22.25
2018-04-28T08:10:38.077Z,25.50
2018-04-28T08:11:42.342Z,32.00
2018-04-28T08:12:46.512Z,30.50
2018-04-28T08:13:50.748Z,23.00
2018-04-28T08:14:54.893Z,28.00
2018-04-28T08:15:59.393Z,35.50
2018-04-28T08:17:04.006Z,27.50
2018-04-28T08:18:08.556Z,35.75
2018-04-28T08:19:12.735Z,25.00
2018-04-28T08:20:17.682Z,29.50
2018-04-28T08:21:21.944Z,27.00
2018-04-28T08:22:26.090Z,31.75
2018-04-28T08:23:30.541Z,33.75
2018-04-28T08:24:34.697Z,29.00
2018-04-28T08:25:38.961Z,26.00
2018-04-28T08:26:43.152Z,40.00
2018-04-28T08:27:47.347Z,31.50
2018-04-28T08:28:51.531Z,33.00
2018-04-28T08:29:55.781Z,31.00
2018-04-28T08:31:00.516Z,50.00
2018-04-28T08:32:04.916Z,31.50
2018-04-28T08:33:09.128Z,36.00
2018-04-28T08:34:13.292Z,31.00
2018-04-28T08:35:17.667Z,25.00
2018-04-28T08:36:21.875Z,32.25
2018-04-28T08:37:26.733Z,27.25
2018-04-28T08:38:30.985Z,23.75
2018-04-28T08:39:35.124Z,23.75
2018-04-28T08:40:39.294Z,38.00
2018-04-28T08:41:43.491Z,35.50
2018-04-28T08:42:47.627Z,30.00
2018-04-28T08:43:51.900Z,36.00
2018-04-28T08:44:56.390Z,37.00
2018-04-28T08:46:00.614Z,34.00
2018-04-28T08:47:04.864Z,27.25
2018-04-28T08:48:09.460Z,30.50
2018-04-28T08:49:13.625Z,38.00
2018-04-28T08:50:17.821Z,32.75
2018-04-28T08:51:22.054Z,28.00
2018-04-28T08:52:28.128Z,31.50
2018-04-28T08:53:32.285Z,28.00
2018-04-28T08:54:36.417Z,33.00
2018-04-28T08:55:40.649Z,34.25
2018-04-28T08:56:44.851Z,35.50
2018-04-28T08:57:48.989Z,31.25
2018-04-28T08:58:53.428Z,49.25
2018-04-28T09:01:00.398Z,36.00
2018-04-28T09:02:04.656Z,29.25
2018-04-28T09:03:08.911Z,27.00
2018-04-28T09:04:13.123Z,50.50
2018-04-28T09:05:18.450Z,31.50
2018-04-28T09:06:22.577Z,43.25
2018-04-28T09:07:27.496Z,33.00
2018-04-28T09:08:32.619Z,35.50
2018-04-28T09:09:36.789Z,37.75
2018-04-28T09:10:41.263Z,36.25
2018-04-28T09:11:45.395Z,42.50
2018-04-28T09:12:49.630Z,35.25
2018-04-28T09:13:53.795Z,32.75
2018-04-28T09:14:58.063Z,36.50
2018-04-28T09:16:03.145Z,31.00
2018-04-28T09:17:07.804Z,37.75
2018-04-28T09:18:11.951Z,27.00
2018-04-28T09:19:16.263Z,29.50
2018-04-28T09:20:21.179Z,41.50
2018-04-28T09:21:25.302Z,36.75
2018-04-28T09:22:30.206Z,38.25
2018-04-28T09:23:34.804Z,40.75
2018-04-28T09:24:39.020Z,45.00
2018-04-28T09:25:43.186Z,31.50
2018-04-28T09:26:47.348Z,34.00
2018-04-28T09:27:51.496Z,29.00
2018-04-28T09:28:55.641Z,27.00
2018-04-28T09:30:00.570Z,36.00
2018-04-28T09:31:05.186Z,34.50
2018-04-28T09:32:09.341Z,39.00
2018-04-28T09:33:13.545Z,53.00
2018-04-28T09:34:17.691Z,36.00
2018-04-28T09:35:23.060Z,50.00
2018-04-28T09:36:27.464Z,34.50
2018-04-28T09:37:32.714Z,47.00
2018-04-28T09:38:36.817Z,37.00
2018-04-28T09:39:40.962Z,49.00
2018-04-28T09:40:45.112Z,49.25
2018-04-28T09:41:49.583Z,59.00
2018-04-28T09:42:53.785Z,55.50
2018-04-28T09:43:57.914Z,49.00
2018-04-28T09:45:04.664Z,38.00
2018-04-28T09:46:09.168Z,41.50
2018-04-28T09:47:13.621Z,43.00
2018-04-28T09:48:17.748Z,40.50
2018-04-28T09:49:21.945Z,35.50
2018-04-28T09:50:26.302Z,41.00
2018-04-28T09:51:31.490Z,45.00
2018-04-28T09:52:35.606Z,28.50
2018-04-28T09:53:40.044Z,27.00
2018-04-28T09:54:44.190Z,31.50
2018-04-28T09:55:48.406Z,35.50
2018-04-28T09:56:52.538Z,36.50
2018-04-28T09:58:05.662Z,28.50
2018-04-28T09:59:09.843Z,36.00
2018-04-28T10:00:24.082Z,34.75
2018-04-28T10:01:28.994Z,40.75
2018-04-28T10:02:34.939Z,41.50
2018-04-28T10:03:39.170Z,37.50
2018-04-28T10:04:43.341Z,48.75
2018-04-28T10:05:47.565Z,42.00
2018-04-28T10:06:51.736Z,35.50
2018-04-28T10:07:55.912Z,43.50
2018-04-28T10:09:00.243Z,40.00
2018-04-28T10:10:04.592Z,46.00
2018-04-28T10:11:08.844Z,32.00
2018-04-28T10:12:12.984Z,33.25
2018-04-28T10:13:17.421Z,33.50
2018-04-28T10:14:22.626Z,33.75
2018-04-28T10:15:26.782Z,50.25
2018-04-28T10:16:31.931Z,31.50
2018-04-28T10:17:36.226Z,32.00
2018-04-28T10:18:40.497Z,37.00
2018-04-28T10:19:45.460Z,55.25
2018-04-28T10:20:50.034Z,42.50
2018-04-28T10:21:54.166Z,31.00
2018-04-28T10:22:58.340Z,34.50
2018-04-28T10:24:02.837Z,25.25
2018-04-28T10:25:07.084Z,30.00
2018-04-28T10:26:11.232Z,28.50
2018-04-28T10:27:15.476Z,26.00
2018-04-28T10:28:19.620Z,24.00
2018-04-28T10:29:24.693Z,35.75
2018-04-28T10:30:29.810Z,37.50
2018-04-28T10:31:33.935Z,36.50
2018-04-28T10:32:38.130Z,20.50
2018-04-28T10:33:42.388Z,30.50
2018-04-28T10:34:46.534Z,24.50
2018-04-28T10:35:50.783Z,35.00
2018-04-28T10:36:55.021Z,20.50
2018-04-28T10:37:59.160Z,30.50
2018-04-28T10:39:03.524Z,20.00
2018-04-28T10:40:07.681Z,24.00
2018-04-28T10:41:11.864Z,24.00
2018-04-28T10:42:16.116Z,31.00
2018-04-28T10:43:20.614Z,27.00
2018-04-28T10:44:24.761Z,32.00
2018-04-28T10:45:29.147Z,46.00
2018-04-28T10:46:33.890Z,37.00
2018-04-28T10:47:38.040Z,32.50
2018-04-28T10:48:42.244Z,30.50
2018-04-28T10:49:46.376Z,32.00
2018-04-28T10:50:50.511Z,29.00
2018-04-28T10:51:54.656Z,25.00
2018-04-28T10:52:58.777Z,29.50
2018-04-28T10:54:03.230Z,28.75
2018-04-28T10:55:08.032Z,34.50
2018-04-28T10:56:12.247Z,34.00
2018-04-28T10:57:16.506Z,30.00
2018-04-28T10:58:20.792Z,27.75
2018-04-28T10:59:25.016Z,37.50
2018-04-28T11:00:29.360Z,39.50
2018-04-28T11:01:34.639Z,27.00
2018-04-28T11:02:38.781Z,28.00
2018-04-28T11:03:43.029Z,27.00
2018-04-28T11:04:47.175Z,19.00
2018-04-28T11:05:51.474Z,23.50
2018-04-28T11:06:55.646Z,27.50
2018-04-28T11:07:59.782Z,31.25
2018-04-28T11:09:04.576Z,25.25
2018-04-28T11:10:08.845Z,33.50
2018-04-28T11:11:13.124Z,38.00
2018-04-28T11:12:17.278Z,33.50
2018-04-28T11:13:21.767Z,30.50
2018-04-28T11:14:25.878Z,28.50
2018-04-28T11:15:30.554Z,35.50
2018-04-28T11:16:35.659Z,36.50
2018-04-28T11:17:39.862Z,30.50
2018-04-28T11:18:44.185Z,37.50
2018-04-28T11:19:49.074Z,46.50
2018-04-28T11:20:53.362Z,38.00
2018-04-28T11:21:57.520Z,29.50
2018-04-28T11:23:01.687Z,26.00
2018-04-28T11:24:06.168Z,26.00
2018-04-28T11:25:10.318Z,28.00
2018-04-28T11:26:14.880Z,22.00
2018-04-28T11:27:19.010Z,29.50
2018-04-28T11:28:23.889Z,22.00
2018-04-28T11:29:28.030Z,19.00
2018-04-28T11:30:32.432Z,28.00
2018-04-28T11:31:37.704Z,29.50
2018-04-28T11:32:42.478Z,25.00
2018-04-28T11:33:46.625Z,19.50
2018-04-28T11:34:50.768Z,21.50
2018-04-28T11:35:54.869Z,26.50
2018-04-28T11:36:59.706Z,16.50
2018-04-28T11:38:03.878Z,22.50
2018-04-28T11:39:08.474Z,18.00
2018-04-28T11:40:13.111Z,26.00
2018-04-28T11:41:17.245Z,17.50
2018-04-28T11:42:21.374Z,23.00
2018-04-28T11:43:25.510Z,22.50
2018-04-28T11:44:29.752Z,18.50
2018-04-28T11:45:34.516Z,29.00
2018-04-28T11:46:38.867Z,25.50
2018-04-28T11:47:43.270Z,33.50
2018-04-28T11:48:47.906Z,22.50
2018-04-28T11:49:52.070Z,19.50
2018-04-28T11:50:56.279Z,20.50
2018-04-28T11:52:00.536Z,26.50
2018-04-28T11:53:04.749Z,25.50
2018-04-28T11:54:08.992Z,24.00
2018-04-28T11:55:13.236Z,23.00
2018-04-28T11:56:17.396Z,22.25
2018-04-28T11:57:22.463Z,22.75
2018-04-28T11:58:26.590Z,27.00
2018-04-28T11:59:30.922Z,24.25
2018-04-28T12:00:35.578Z,27.50
2018-04-28T12:01:40.970Z,28.25
2018-04-28T12:02:45.590Z,23.75
2018-04-28T12:03:50.053Z,19.00
2018-04-28T12:04:54.245Z,23.25
2018-04-28T12:05:58.392Z,17.00
2018-04-28T12:07:02.550Z,23.00
2018-04-28T12:08:06.806Z,28.00
2018-04-28T12:09:11.235Z,22.50
2018-04-28T12:10:15.730Z,23.50
2018-04-28T12:11:19.844Z,29.50
2018-04-28T12:12:24.006Z,27.50
2018-04-28T12:13:28.251Z,24.50
2018-04-28T12:14:32.446Z,25.50
2018-04-28T12:15:36.754Z,24.00
2018-04-28T12:16:41.607Z,30.25
2018-04-28T12:17:45.800Z,22.00
2018-04-28T12:18:49.926Z,26.50
2018-04-28T12:19:54.074Z,29.75
2018-04-28T12:20:58.227Z,21.50
2018-04-28T12:22:02.415Z,24.00
2018-04-28T12:23:06.657Z,23.00
2018-04-28T12:24:11.145Z,31.50
2018-04-28T12:25:15.547Z,28.25
2018-04-28T12:26:19.690Z,21.00
2018-04-28T12:27:24.659Z,32.00
2018-04-28T12:28:28.902Z,24.00
2018-04-28T12:29:33.064Z,19.50
2018-04-28T12:30:37.563Z,30.50
2018-04-28T12:31:41.730Z,27.50
2018-04-28T12:32:45.853Z,20.00
2018-04-28T12:33:49.997Z,20.00
2018-04-28T12:34:54.160Z,29.75
2018-04-28T12:35:58.684Z,19.50
2018-04-28T12:37:02.858Z,21.00
2018-04-28T12:38:07.131Z,30.75
2018-04-28T12:39:11.525Z,24.00
2018-04-28T12:40:15.689Z,22.50
2018-04-28T12:41:19.992Z,17.00
2018-04-28T12:42:24.145Z,26.00
2018-04-28T12:43:29.123Z,21.00
2018-04-28T12:44:33.258Z,25.50
2018-04-28T12:45:37.601Z,30.00
2018-04-28T12:46:42.375Z,29.00
2018-04-28T12:47:46.895Z,25.00
2018-04-28T12:48:51.056Z,17.00
2018-04-28T12:49:55.226Z,22.00
2018-04-28T12:50:59.461Z,23.00
2018-04-28T12:52:03.691Z,24.00
2018-04-28T12:53:08.036Z,23.00
2018-04-28T12:54:12.483Z,24.00
2018-04-28T12:55:16.804Z,28.75
2018-04-28T12:56:21.322Z,28.50
2018-04-28T12:57:25.488Z,23.50
2018-04-28T12:58:29.611Z,22.00
2018-04-28T12:59:33.882Z,28.50
2018-04-28T13:00:38.054Z,20.00
2018-04-28T13:01:42.955Z,20.00
2018-04-28T13:02:47.206Z,20.50
2018-04-28T13:03:51.377Z,24.00
2018-04-28T13:04:55.933Z,23.00
2018-04-28T13:06:00.156Z,19.50
2018-04-28T13:07:04.377Z,28.00
2018-04-28T13:08:08.572Z,26.50
2018-04-28T13:09:13.146Z,29.00
2018-04-28T13:10:17.357Z,35.75
2018-04-28T13:11:21.838Z,26.00
2018-04-28T13:12:26.106Z,21.50
2018-04-28T13:13:30.273Z,24.50
2018-04-28T13:14:34.461Z,30.00
2018-04-28T13:15:38.672Z,32.75
2018-04-28T13:16:42.925Z,31.25
2018-04-28T13:17:47.547Z,39.50
2018-04-28T13:18:52.022Z,29.00
2018-04-28T13:19:56.444Z,37.00
2018-04-28T13:21:00.759Z,25.50
2018-04-28T13:22:05.085Z,34.00
2018-04-28T13:23:09.348Z,30.50
2018-04-28T13:24:14.153Z,23.00
2018-04-28T13:25:18.323Z,30.00
2018-04-28T13:26:22.516Z,23.00
2018-04-28T13:27:26.655Z,29.00
2018-04-28T13:28:30.896Z,31.75
2018-04-28T13:29:35.643Z,29.00
2018-04-28T13:30:39.822Z,28.50
2018-04-28T13:31:45.491Z,27.50
2018-04-28T13:32:49.687Z,17.00
2018-04-28T13:33:53.934Z,30.50
2018-04-28T13:34:58.088Z,19.50
2018-04-28T13:36:02.625Z,25.50
2018-04-28T13:37:06.933Z,18.00
2018-04-28T13:38:11.499Z,20.50
2018-04-28T13:39:15.997Z,17.50
2018-04-28T13:40:20.183Z,22.25
2018-04-28T13:41:24.323Z,27.00
2018-04-28T13:42:28.889Z,19.00
2018-04-28T13:43:33.936Z,27.00
2018-04-28T13:44:38.145Z,19.50
2018-04-28T13:45:42.516Z,28.00
2018-04-28T13:46:46.673Z,29.50
2018-04-28T13:47:50.796Z,20.50
2018-04-28T13:48:55.717Z,17.00
2018-04-28T13:49:59.869Z,16.00
2018-04-28T13:51:04.100Z,21.50
2018-04-28T13:52:08.289Z,20.00
2018-04-28T13:53:12.786Z,20.00
2018-04-28T13:54:17.108Z,22.75
2018-04-28T13:55:21.349Z,18.00
2018-04-28T13:56:25.493Z,27.00
2018-04-28T13:57:29.886Z,17.50
2018-04-28T13:58:35.008Z,19.50
2018-04-28T13:59:39.166Z,22.00